Time;durP1;ratioP1;P1;durP2;ratioP2;P2;SDS_P1;SDS_P2;PMS_P1;PMS_P2;Temp;Humidity;BMP_temperature;BMP_pressure;BME280_temperature;BME280_humidity;BME280_pressure;Samples;Min_cycle;Max_cycle;Signal;HPM_P1;HPM_P2
2022/09/24 05:38:25;;;;;;;1.73;1.63;;;18.70;98.90;;;;;;5089167;28;20667;-58
2022/09/24 05:40:53;;;;;;;1.83;1.73;;;18.70;99.30;;;;;;5089277;28;20871;-56
2022/09/24 05:43:20;;;;;;;2.00;1.90;;;18.70;99.20;;;;;;5088752;28;21002;-60
2022/09/24 05:45:49;;;;;;;1.90;1.90;;;18.80;98.90;;;;;;5076513;28;20495;-62
2022/09/24 05:48:16;;;;;;;1.80;1.70;;;18.90;99.10;;;;;;5092510;22;20864;-66
2022/09/24 05:50:43;;;;;;;2.63;2.53;;;18.90;99.10;;;;;;5037236;28;20449;-64
2022/09/24 05:53:11;;;;;;;2.20;2.00;;;19.00;99.50;;;;;;5036023;28;20483;-66
2022/09/24 05:55:47;;;;;;;1.93;1.83;;;19.00;99.60;;;;;;5028801;28;20965;-64
2022/09/24 05:58:15;;;;;;;1.70;1.57;;;19.10;99.80;;;;;;5028720;28;20568;-64
2022/09/24 06:00:44;;;;;;;2.07;1.93;;;19.10;99.80;;;;;;5028608;28;20445;-65
2022/09/24 06:03:12;;;;;;;1.80;1.77;;;19.20;99.90;;;;;;5028647;28;20777;-65
2022/09/24 06:05:42;;;;;;;1.80;1.70;;;19.20;99.90;;;;;;5028668;28;20445;-65
2022/09/24 06:08:09;;;;;;;2.10;2.00;;;19.20;99.80;;;;;;5028521;28;20438;-65
2022/09/24 06:10:36;;;;;;;1.93;1.83;;;19.30;99.70;;;;;;5028344;28;20541;-65
2022/09/24 06:13:04;;;;;;;2.50;2.30;;;19.30;99.70;;;;;;5028296;28;20532;-65
2022/09/24 06:15:31;;;;;;;1.70;1.70;;;19.30;99.60;;;;;;5028489;28;21034;-64
2022/09/24 06:17:58;;;;;;;2.00;1.90;;;19.30;99.50;;;;;;5028371;28;21005;-64
2022/09/24 06:20:25;;;;;;;2.07;1.97;;;19.40;99.50;;;;;;5028063;28;20556;-64
2022/09/24 06:22:56;;;;;;;1.80;1.70;;;19.40;99.40;;;;;;5028288;28;20535;-65
2022/09/24 06:25:23;;;;;;;2.10;2.00;;;19.40;99.40;;;;;;5028291;28;20446;-65
2022/09/24 06:27:59;;;;;;;1.97;1.97;;;19.40;99.30;;;;;;5028287;28;20451;-65
2022/09/24 06:30:28;;;;;;;3.00;2.13;;;19.40;99.30;;;;;;5027923;28;20471;-65
2022/09/24 06:32:55;;;;;;;2.60;2.47;;;19.40;99.20;;;;;;5027915;28;20453;-67
2022/09/24 06:35:22;;;;;;;2.13;2.03;;;19.50;99.20;;;;;;5028209;28;21014;-66
2022/09/24 06:37:49;;;;;;;1.60;1.60;;;19.50;99.20;;;;;;5028113;28;20516;-66
2022/09/24 06:40:16;;;;;;;1.97;1.87;;;19.50;99.10;;;;;;5028064;28;20572;-65
2022/09/24 06:42:43;;;;;;;1.73;1.63;;;19.50;99.10;;;;;;5027220;28;20557;-66
2022/09/24 06:45:10;;;;;;;2.20;2.00;;;19.50;99.00;;;;;;5027962;28;20481;-66
2022/09/24 06:47:39;;;;;;;1.60;1.60;;;19.50;99.00;;;;;;5026734;28;20884;-66
2022/09/24 06:50:07;;;;;;;2.13;2.03;;;19.50;99.00;;;;;;5014014;28;20815;-66
2022/09/24 06:52:34;;;;;;;3.00;2.80;;;19.60;99.10;;;;;;5014486;28;20854;-66
2022/09/24 06:55:01;;;;;;;2.00;1.90;;;19.60;99.00;;;;;;5014672;28;20457;-64
2022/09/24 06:57:28;;;;;;;1.87;1.77;;;19.60;98.90;;;;;;5014643;28;20574;-65
2022/09/24 06:59:55;;;;;;;2.40;2.23;;;19.60;98.90;;;;;;5014225;28;20472;-64
2022/09/24 07:02:21;;;;;;;1.87;1.70;;;19.70;99.00;;;;;;5014206;28;20892;-64
2022/09/24 07:04:50;;;;;;;2.00;1.90;;;19.70;99.00;;;;;;5014463;28;20541;-65
2022/09/24 07:07:33;;;;;;;2.03;1.93;;;19.70;98.90;;;;;;5014254;28;20536;-64
2022/09/24 07:10:01;;;;;;;1.70;1.63;;;19.70;98.90;;;;;;5014410;28;20501;-65
2022/09/24 07:12:29;;;;;;;2.93;2.67;;;19.70;98.90;;;;;;5014043;28;20453;-65
2022/09/24 07:14:56;;;;;;;2.30;2.20;;;19.70;98.90;;;;;;5014197;28;20442;-65
2022/09/24 07:17:23;;;;;;;1.97;1.87;;;19.70;98.80;;;;;;5013851;28;20485;-65
2022/09/24 07:19:51;;;;;;;1.77;1.67;;;19.80;98.90;;;;;;5013878;28;21094;-64
2022/09/24 07:22:19;;;;;;;2.33;2.23;;;19.80;98.80;;;;;;5014006;28;20442;-65
2022/09/24 07:24:46;;;;;;;1.60;1.50;;;19.80;98.80;;;;;;5014117;28;20450;-66
2022/09/24 07:27:14;;;;;;;1.97;1.87;;;19.80;98.80;;;;;;5013767;28;20497;-65
2022/09/24 07:29:41;;;;;;;1.83;1.80;;;19.80;98.80;;;;;;5013887;28;20990;-65
2022/09/24 07:32:08;;;;;;;2.03;1.93;;;19.80;98.70;;;;;;5013653;28;20533;-66
2022/09/24 07:34:35;;;;;;;1.70;1.63;;;19.80;98.70;;;;;;5013838;28;20450;-66
2022/09/24 07:37:03;;;;;;;1.93;1.83;;;19.80;98.70;;;;;;5013603;28;20513;-66
2022/09/24 07:39:30;;;;;;;2.27;2.17;;;19.90;98.70;;;;;;4994117;28;20491;-67
2022/09/24 07:41:57;;;;;;;1.73;1.73;;;19.90;98.70;;;;;;4994231;28;20814;-63
2022/09/24 07:44:24;;;;;;;1.90;1.63;;;20.00;99.00;;;;;;4994151;28;20538;-65
2022/09/24 07:46:51;;;;;;;2.00;1.83;;;20.10;98.90;;;;;;4994124;28;20980;-66
2022/09/24 07:49:18;;;;;;;2.00;1.63;;;20.20;98.60;;;;;;5011887;28;20488;-67
2022/09/24 07:51:45;;;;;;;2.30;1.97;;;20.20;98.40;;;;;;5013458;28;20460;-66
2022/09/24 07:54:13;;;;;;;2.20;2.10;;;20.30;98.30;;;;;;5013561;28;20532;-66
2022/09/24 07:56:40;;;;;;;1.93;1.57;;;20.40;98.20;;;;;;5013435;28;20442;-65
2022/09/24 07:59:09;;;;;;;2.97;1.97;;;20.30;98.00;;;;;;5012970;28;20477;-64
2022/09/24 08:01:37;;;;;;;2.00;1.90;;;20.40;98.00;;;;;;5012490;28;20462;-65
2022/09/24 08:04:04;;;;;;;2.43;1.70;;;20.40;97.90;;;;;;5012040;28;20526;-62
2022/09/24 08:06:33;;;;;;;2.20;2.10;;;20.50;99.10;;;;;;5012803;28;20451;-65
2022/09/24 08:09:01;;;;;;;2.03;1.93;;;20.50;98.90;;;;;;5012807;28;20505;-62
2022/09/24 08:11:29;;;;;;;2.07;1.97;;;20.60;98.50;;;;;;5012818;28;20472;-63
2022/09/24 08:13:57;;;;;;;1.80;1.70;;;20.60;98.40;;;;;;5013162;28;20450;-68
2022/09/24 08:16:25;;;;;;;1.93;1.83;;;20.60;97.50;;;;;;5013157;28;20442;-68
2022/09/24 08:18:52;;;;;;;2.00;1.90;;;20.50;97.30;;;;;;5012588;28;20481;-68
2022/09/24 08:21:19;;;;;;;3.00;2.30;;;20.40;97.40;;;;;;5012882;28;20461;-65
2022/09/24 08:23:47;;;;;;;2.37;1.73;;;20.40;97.60;;;;;;5012961;28;20481;-66
2022/09/24 08:26:14;;;;;;;2.70;2.60;;;20.30;97.50;;;;;;5012914;28;20545;-68
2022/09/24 08:28:43;;;;;;;2.00;1.90;;;20.30;98.30;;;;;;5011174;28;20473;-63
2022/09/24 08:31:15;;;;;;;1.80;1.70;;;20.40;99.90;;;;;;5003711;28;21167;-66
2022/09/24 08:33:45;;;;;;;2.27;2.17;;;20.40;99.50;;;;;;5012419;28;20454;-65
2022/09/24 08:36:12;;;;;;;1.97;1.90;;;20.40;99.70;;;;;;5012860;28;20442;-64
2022/09/24 08:38:39;;;;;;;2.37;2.27;;;20.40;99.90;;;;;;5012879;28;20493;-65
2022/09/24 08:41:26;;;;;;;2.10;2.00;;;20.40;99.80;;;;;;5011955;28;20442;-63
2022/09/24 08:44:02;;;;;;;2.53;2.33;;;20.40;99.90;;;;;;5005867;28;20529;-64
2022/09/24 08:49:22;;;;;;;2.20;2.07;;;20.50;99.80;;;;;;5012298;28;20461;-65
2022/09/24 08:51:59;;;;;;;2.00;1.90;;;20.50;99.70;;;;;;5012139;28;20877;-66
2022/09/24 08:54:29;;;;;;;1.70;1.60;;;20.50;99.70;;;;;;5012423;28;20547;-68
2022/09/24 08:56:58;;;;;;;2.13;2.03;;;20.50;99.00;;;;;;4999045;28;20523;-69
2022/09/24 08:59:30;;;;;;;3.93;2.07;;;20.50;98.40;;;;;;4992615;28;20993;-64
2022/09/24 09:02:20;;;;;;;2.17;2.07;;;20.60;98.30;;;;;;4992571;28;20453;-65
2022/09/24 09:04:57;;;;;;;1.83;1.63;;;20.50;98.10;;;;;;4992633;28;20453;-65
2022/09/24 09:07:29;;;;;;;2.03;1.93;;;20.50;98.30;;;;;;4992708;28;20442;-64
2022/09/24 09:10:01;;;;;;;3.40;3.00;;;20.50;98.10;;;;;;4992655;28;20473;-65
2022/09/24 09:12:32;;;;;;;3.40;2.73;;;20.50;99.00;;;;;;4992293;28;20443;-65
2022/09/24 09:15:03;;;;;;;8.27;4.20;;;20.60;99.00;;;;;;4992526;28;20453;-64
2022/09/24 09:17:40;;;;;;;11.10;4.10;;;20.60;99.90;;;;;;4996688;28;20484;-65
2022/09/24 09:20:13;;;;;;;8.40;4.87;;;20.60;99.90;;;;;;5003641;28;20996;-64
2022/09/24 09:22:45;;;;;;;10.40;5.63;;;20.70;99.90;;;;;;4992269;28;20446;-63
2022/09/24 09:25:19;;;;;;;15.33;6.60;;;20.70;99.90;;;;;;5009013;28;20936;-66
2022/09/24 09:27:49;;;;;;;17.40;5.60;;;20.70;99.90;;;;;;5011836;28;20458;-67
2022/09/24 09:30:20;;;;;;;16.33;7.10;;;20.80;99.90;;;;;;5011326;28;20470;-65
2022/09/24 09:33:04;;;;;;;13.10;5.57;;;20.80;99.90;;;;;;5011288;28;20450;-65
2022/09/24 09:35:38;;;;;;;9.80;4.97;;;20.90;99.90;;;;;;5011931;28;20449;-65
2022/09/24 09:38:16;;;;;;;16.20;6.27;;;21.00;99.90;;;;;;5011819;28;20487;-68
2022/09/24 09:40:48;;;;;;;9.03;5.20;;;21.00;99.90;;;;;;5011909;28;20939;-68
2022/09/24 09:43:15;;;;;;;11.40;5.30;;;21.10;99.90;;;;;;5011558;28;20446;-68
2022/09/24 09:45:53;;;;;;;6.30;4.47;;;21.10;99.90;;;;;;5011811;28;20450;-68
2022/09/24 09:48:25;;;;;;;8.50;5.30;;;21.20;99.90;;;;;;5011629;28;20633;-68
2022/09/24 09:50:59;;;;;;;8.10;4.37;;;21.20;99.90;;;;;;5011709;28;20442;-68
2022/09/24 09:53:28;;;;;;;7.60;5.43;;;21.20;99.90;;;;;;5011498;28;20446;-68
2022/09/24 09:55:58;;;;;;;9.67;4.53;;;21.20;99.90;;;;;;5011670;28;20446;-68
2022/09/24 09:58:27;;;;;;;9.03;5.60;;;21.20;99.90;;;;;;5011567;28;21011;-68
2022/09/24 10:01:04;;;;;;;9.03;4.70;;;21.30;99.90;;;;;;5011590;28;21019;-67
2022/09/24 10:03:32;;;;;;;10.53;4.83;;;21.30;99.90;;;;;;5011398;28;20529;-69
2022/09/24 10:06:01;;;;;;;10.20;4.03;;;21.20;99.90;;;;;;5011590;28;20450;-68
2022/09/24 10:08:29;;;;;;;10.50;4.77;;;21.20;99.90;;;;;;5011552;28;20873;-67
2022/09/24 10:10:57;;;;;;;6.93;4.80;;;21.30;99.90;;;;;;5011535;28;20538;-67
2022/09/24 10:13:25;;;;;;;7.43;4.60;;;21.30;99.90;;;;;;5011403;28;20446;-68
2022/09/24 10:15:53;;;;;;;7.73;4.47;;;21.30;99.90;;;;;;5011483;28;20449;-67
2022/09/24 10:18:31;;;;;;;8.07;4.30;;;21.40;99.70;;;;;;5011377;28;21105;-68
2022/09/24 10:21:02;;;;;;;5.60;3.80;;;21.40;99.50;;;;;;5011516;28;20915;-67
2022/09/24 10:23:35;;;;;;;6.30;3.50;;;21.50;99.30;;;;;;5012192;28;20450;-68
2022/09/24 10:26:03;;;;;;;6.70;4.27;;;21.50;99.10;;;;;;5015115;28;20882;-69
2022/09/24 10:31:19;;;;;;;8.27;5.63;;;21.50;98.70;;;;;;5015024;28;20569;-69
2022/09/24 10:33:50;;;;;;;5.27;4.30;;;21.50;98.50;;;;;;5015049;28;20481;-68
2022/09/24 10:36:20;;;;;;;8.97;4.60;;;21.50;98.30;;;;;;5015065;28;20449;-69
2022/09/24 10:38:47;;;;;;;6.53;4.20;;;21.50;98.10;;;;;;5014874;28;21070;-69
2022/09/24 10:41:16;;;;;;;5.93;3.67;;;21.50;98.00;;;;;;5014837;28;20437;-69
2022/09/24 10:43:51;;;;;;;5.77;3.47;;;21.60;97.90;;;;;;5014804;28;20438;-70
2022/09/24 10:46:36;;;;;;;7.07;3.63;;;21.60;97.80;;;;;;5014999;28;20446;-69
2022/09/24 10:49:15;;;;;;;6.30;2.93;;;21.60;97.70;;;;;;5014539;28;20480;-70
2022/09/24 10:51:50;;;;;;;3.93;3.37;;;21.60;97.50;;;;;;5014610;28;20461;-70
2022/09/24 10:54:38;;;;;;;4.27;3.60;;;21.60;97.30;;;;;;5014759;28;20441;-70
2022/09/24 10:57:18;;;;;;;5.60;3.70;;;21.60;97.20;;;;;;5014473;28;20464;-70
2022/09/24 10:59:57;;;;;;;5.73;3.73;;;21.60;97.10;;;;;;5014310;28;20490;-70
2022/09/24 11:02:42;;;;;;;5.20;2.90;;;21.60;97.00;;;;;;5014309;28;20465;-71
2022/09/24 11:05:12;;;;;;;3.97;3.57;;;21.60;96.90;;;;;;5014465;28;20533;-70
2022/09/24 11:08:05;;;;;;;4.23;3.77;;;21.70;96.80;;;;;;5014502;28;20449;-70
2022/09/24 11:11:03;;;;;;;3.60;3.30;;;21.70;96.70;;;;;;5014404;28;20525;-69
2022/09/24 11:13:39;;;;;;;4.60;2.87;;;21.60;96.60;;;;;;5014165;28;20451;-70
2022/09/24 11:16:23;;;;;;;6.77;3.30;;;21.70;96.50;;;;;;5014388;28;20457;-70
2022/09/24 11:18:57;;;;;;;4.17;2.70;;;21.70;96.40;;;;;;5014113;28;21022;-70
2022/09/24 11:21:35;;;;;;;3.77;2.97;;;21.70;96.30;;;;;;5014053;28;20449;-70
2022/09/24 11:24:23;;;;;;;3.87;2.93;;;21.80;96.20;;;;;;5014004;28;20454;-70
2022/09/24 11:27:03;;;;;;;4.97;2.90;;;21.80;96.10;;;;;;5014132;28;20529;-70
2022/09/24 11:29:44;;;;;;;7.30;4.30;;;21.80;96.00;;;;;;5013971;28;20465;-70
2022/09/24 11:32:16;;;;;;;5.90;2.70;;;21.80;96.00;;;;;;5013744;28;20537;-69
2022/09/24 11:35:15;;;;;;;3.10;2.80;;;21.80;95.90;;;;;;5013831;28;20537;-69
2022/09/24 11:37:57;;;;;;;3.13;2.37;;;21.80;95.80;;;;;;5013956;28;20882;-70
2022/09/24 11:40:51;;;;;;;4.83;3.77;;;21.80;95.70;;;;;;5013784;28;20471;-71
2022/09/24 11:43:44;;;;;;;3.17;2.80;;;21.90;95.70;;;;;;5013669;28;20490;-71
2022/09/24 11:46:23;;;;;;;4.80;2.70;;;21.90;95.60;;;;;;5013803;28;20453;-69
2022/09/24 11:49:07;;;;;;;4.43;2.80;;;21.90;95.80;;;;;;5014010;28;20474;-69
2022/09/24 11:51:46;;;;;;;4.13;3.70;;;21.90;95.70;;;;;;5013493;28;20441;-69
2022/09/24 11:54:23;;;;;;;3.23;2.93;;;21.90;95.30;;;;;;5013559;28;20454;-69
2022/09/24 11:56:55;;;;;;;3.53;2.67;;;21.90;95.20;;;;;;5013526;28;20458;-69
2022/09/24 11:59:32;;;;;;;4.13;2.63;;;21.90;95.10;;;;;;5014254;28;20493;-69
2022/09/24 12:02:04;;;;;;;4.20;3.83;;;21.90;95.10;;;;;;5015620;28;20441;-69
2022/09/24 12:04:46;;;;;;;3.70;3.20;;;21.90;95.00;;;;;;5014825;28;20449;-69
2022/09/24 12:07:16;;;;;;;2.30;2.10;;;21.90;94.90;;;;;;5014589;28;20958;-69
2022/09/24 12:09:51;;;;;;;2.97;2.77;;;22.00;94.90;;;;;;5013164;28;20454;-69
2022/09/24 12:12:23;;;;;;;2.63;2.13;;;22.00;95.20;;;;;;5012225;28;20449;-69
2022/09/24 12:14:56;;;;;;;5.50;2.50;;;22.00;94.80;;;;;;5014045;28;20478;-69
2022/09/24 12:17:30;;;;;;;3.23;2.17;;;22.00;94.70;;;;;;5013726;28;20450;-69
2022/09/24 12:20:00;;;;;;;3.80;2.50;;;22.00;94.70;;;;;;5012804;28;20855;-70
2022/09/24 12:22:29;;;;;;;4.00;3.30;;;22.00;94.60;;;;;;5012173;28;20461;-69
2022/09/24 12:25:00;;;;;;;2.97;2.63;;;21.90;96.20;;;;;;5012985;28;20468;-70
2022/09/24 12:27:33;;;;;;;3.30;2.83;;;21.80;97.30;;;;;;5012915;28;20442;-71
2022/09/24 12:33:04;;;;;;;4.00;3.63;;;21.80;98.50;;;;;;5012453;28;20437;-70
2022/09/24 12:35:52;;;;;;;3.80;3.20;;;21.70;98.80;;;;;;5012071;28;20454;-68
2022/09/24 12:38:24;;;;;;;4.30;3.00;;;21.70;99.50;;;;;;5012511;28;20503;-68
2022/09/24 12:41:22;;;;;;;4.80;3.33;;;21.70;99.70;;;;;;5012274;28;20454;-70
2022/09/24 12:43:52;;;;;;;3.27;3.07;;;21.70;99.90;;;;;;4993009;28;20514;-70
2022/09/24 12:46:22;;;;;;;4.00;3.20;;;21.70;99.90;;;;;;4992495;28;20860;-72
2022/09/24 12:48:51;;;;;;;4.30;3.90;;;21.60;99.60;;;;;;4992649;28;20471;-69
2022/09/24 12:51:22;;;;;;;3.10;2.90;;;21.60;99.90;;;;;;4992672;28;20537;-68
2022/09/24 12:53:58;;;;;;;5.00;4.40;;;21.70;99.90;;;;;;4992763;28;20454;-69
2022/09/24 12:56:29;;;;;;;4.20;3.10;;;21.60;99.90;;;;;;5005781;28;20955;-71
2022/09/24 12:58:57;;;;;;;3.63;3.10;;;21.70;99.90;;;;;;5012301;28;20492;-73
2022/09/24 13:01:31;;;;;;;2.83;2.67;;;21.70;99.90;;;;;;5012120;28;20537;-72
2022/09/24 13:04:18;;;;;;;4.10;3.73;;;21.60;99.80;;;;;;5012353;28;20468;-67
2022/09/24 13:06:48;;;;;;;4.47;2.57;;;21.60;99.90;;;;;;5012199;28;20450;-68
2022/09/24 13:09:29;;;;;;;2.57;2.37;;;21.60;99.90;;;;;;5011943;28;21075;-66
2022/09/24 13:12:04;;;;;;;3.30;2.93;;;21.60;99.90;;;;;;4992528;28;20613;-67
2022/09/24 13:14:32;;;;;;;2.63;2.43;;;21.60;99.90;;;;;;4992543;28;20447;-68
2022/09/24 13:17:04;;;;;;;3.90;2.83;;;21.70;99.90;;;;;;4992578;28;20534;-73
2022/09/24 13:19:36;;;;;;;3.10;2.90;;;21.70;99.90;;;;;;4992314;28;20482;-70
2022/09/24 13:22:03;;;;;;;3.47;3.17;;;21.70;99.80;;;;;;4992376;28;20518;-74
2022/09/24 13:24:35;;;;;;;3.70;3.00;;;21.60;99.90;;;;;;5008716;28;20876;-73
2022/09/24 13:27:21;;;;;;;4.37;3.90;;;21.60;99.90;;;;;;4992482;28;20459;-71
2022/09/24 13:30:02;;;;;;;3.27;2.90;;;21.60;99.60;;;;;;4992394;28;20666;-74
2022/09/24 13:32:34;;;;;;;4.07;3.00;;;21.70;99.90;;;;;;4992255;28;20459;-70
2022/09/24 13:35:06;;;;;;;3.13;2.60;;;21.60;99.90;;;;;;4992387;28;20929;-72
2022/09/24 13:37:38;;;;;;;9.73;4.00;;;21.60;99.90;;;;;;5001971;28;20446;-71
2022/09/24 13:40:16;;;;;;;4.10;3.40;;;21.60;99.90;;;;;;5012863;28;20492;-71
2022/09/24 13:42:49;;;;;;;4.07;3.67;;;21.70;99.90;;;;;;5012939;28;20889;-70
2022/09/24 13:45:19;;;;;;;3.30;3.10;;;21.70;99.90;;;;;;5012100;28;20454;-72
2022/09/24 13:47:50;;;;;;;3.53;2.80;;;21.70;99.90;;;;;;5011942;28;21007;-71
2022/09/24 13:50:20;;;;;;;4.00;3.63;;;21.70;99.90;;;;;;5011562;28;20474;-72
2022/09/24 13:52:52;;;;;;;2.70;2.50;;;21.70;99.90;;;;;;5012728;28;20877;-70
2022/09/24 13:55:24;;;;;;;3.30;3.10;;;21.70;99.90;;;;;;5012090;28;20525;-71
2022/09/24 13:57:52;;;;;;;4.67;3.50;;;21.70;99.90;;;;;;5012091;28;20530;-73
2022/09/24 14:00:21;;;;;;;3.00;2.80;;;21.70;99.90;;;;;;5017984;28;20577;-73
2022/09/24 14:02:58;;;;;;;4.00;3.50;;;21.70;99.90;;;;;;5015929;28;20935;-69
2022/09/24 14:05:26;;;;;;;3.30;2.83;;;21.70;99.90;;;;;;5015089;28;20446;-69
2022/09/24 14:07:56;;;;;;;3.20;2.87;;;21.70;99.90;;;;;;5015468;28;20456;-71
2022/09/24 14:10:23;;;;;;;5.53;2.70;;;21.70;99.90;;;;;;5015415;28;20502;-71
2022/09/24 14:13:13;;;;;;;3.60;3.30;;;21.70;99.90;;;;;;5015258;28;20446;-73
2022/09/24 14:15:53;;;;;;;2.80;2.60;;;21.70;99.90;;;;;;5015896;28;20460;-71
2022/09/24 14:18:20;;;;;;;4.23;3.83;;;21.70;99.90;;;;;;5015076;28;20524;-65
2022/09/24 14:20:54;;;;;;;4.17;3.40;;;21.70;99.90;;;;;;5015078;28;20927;-69
2022/09/24 14:23:24;;;;;;;3.13;2.67;;;21.70;99.70;;;;;;5015155;28;20540;-68
2022/09/24 14:25:52;;;;;;;2.93;2.73;;;21.70;99.80;;;;;;5015403;28;20442;-68
2022/09/24 14:28:21;;;;;;;3.37;2.43;;;21.70;99.60;;;;;;5015200;28;21023;-68
2022/09/24 14:30:51;;;;;;;3.33;2.73;;;21.80;99.30;;;;;;5015226;28;20473;-66
2022/09/24 14:33:21;;;;;;;3.30;3.00;;;21.80;99.00;;;;;;5014990;28;20850;-68
2022/09/24 14:35:51;;;;;;;2.97;2.83;;;21.80;99.10;;;;;;5015270;28;20449;-68
2022/09/24 14:38:21;;;;;;;3.10;2.63;;;21.80;98.50;;;;;;5015127;28;20442;-68
2022/09/24 14:40:53;;;;;;;4.27;3.23;;;21.80;98.30;;;;;;5015013;28;20493;-68
2022/09/24 14:43:30;;;;;;;3.47;3.10;;;21.80;98.10;;;;;;5015059;28;20445;-68
2022/09/24 14:46:03;;;;;;;4.20;3.17;;;21.80;97.90;;;;;;5015123;28;20551;-68
2022/09/24 14:48:33;;;;;;;4.23;2.90;;;21.80;97.80;;;;;;5014958;28;21105;-68
2022/09/24 14:51:00;;;;;;;3.13;2.30;;;21.80;97.60;;;;;;5014894;28;20449;-67
2022/09/24 14:53:28;;;;;;;3.40;3.13;;;21.80;97.50;;;;;;5014591;28;20453;-68
2022/09/24 14:55:56;;;;;;;2.80;2.50;;;21.80;97.30;;;;;;5015063;28;20450;-68
2022/09/24 14:58:35;;;;;;;2.13;2.03;;;21.80;97.20;;;;;;5015018;28;20619;-68
2022/09/24 15:01:05;;;;;;;3.23;2.97;;;21.90;97.10;;;;;;5014946;28;20521;-68
2022/09/24 15:03:38;;;;;;;2.57;2.43;;;21.80;96.90;;;;;;5014976;28;20486;-68
2022/09/24 15:06:13;;;;;;;3.90;2.87;;;21.90;97.20;;;;;;5014989;28;20521;-66
2022/09/24 15:08:42;;;;;;;2.77;2.57;;;21.80;96.70;;;;;;5014372;28;20541;-67
2022/09/24 15:11:16;;;;;;;3.07;2.87;;;21.80;96.90;;;;;;5014334;28;20951;-68
2022/09/24 15:13:45;;;;;;;2.60;2.20;;;21.80;96.50;;;;;;5014508;28;20740;-66
2022/09/24 15:16:20;;;;;;;2.30;2.17;;;21.80;96.40;;;;;;5014401;28;20536;-67
2022/09/24 15:18:59;;;;;;;2.63;2.43;;;21.80;96.30;;;;;;5014196;28;20983;-67
2022/09/24 15:21:26;;;;;;;3.13;2.43;;;21.80;96.30;;;;;;5014052;28;20448;-66
2022/09/24 15:23:54;;;;;;;2.90;2.60;;;21.80;96.10;;;;;;5014563;28;20872;-68
2022/09/24 15:26:22;;;;;;;4.63;2.83;;;21.80;96.10;;;;;;5014275;28;20533;-67
2022/09/24 15:28:50;;;;;;;3.20;2.90;;;21.80;96.00;;;;;;5013923;28;20498;-67
2022/09/24 15:31:17;;;;;;;3.13;2.93;;;21.80;95.90;;;;;;5013982;28;20442;-67
2022/09/24 15:33:44;;;;;;;2.70;2.60;;;21.80;95.90;;;;;;5013886;28;20450;-68
2022/09/24 15:36:13;;;;;;;2.70;2.50;;;21.80;95.80;;;;;;5013761;28;20504;-67
2022/09/24 15:38:40;;;;;;;2.23;2.03;;;21.80;95.80;;;;;;5013729;28;20479;-66
2022/09/24 15:41:08;;;;;;;2.50;2.30;;;21.80;95.70;;;;;;5013701;28;20486;-67
2022/09/24 15:43:35;;;;;;;2.10;2.00;;;21.80;95.60;;;;;;5013529;28;20537;-67
2022/09/24 15:46:03;;;;;;;2.63;2.43;;;21.80;95.60;;;;;;5013757;28;20533;-66
2022/09/24 15:48:30;;;;;;;4.23;2.00;;;21.80;95.80;;;;;;5013321;28;20569;-67
2022/09/24 15:50:57;;;;;;;2.37;2.27;;;21.80;95.50;;;;;;5013637;28;20438;-67
2022/09/24 15:53:26;;;;;;;2.10;2.00;;;21.80;95.40;;;;;;5013282;28;20450;-67
2022/09/24 15:55:55;;;;;;;3.17;2.87;;;21.80;95.30;;;;;;5013513;28;20478;-68
2022/09/24 15:58:22;;;;;;;2.60;2.50;;;21.80;95.30;;;;;;5013419;28;20478;-67
2022/09/24 16:00:50;;;;;;;2.17;2.07;;;21.80;95.20;;;;;;5013250;28;21009;-67
2022/09/24 16:03:22;;;;;;;2.97;2.77;;;21.80;95.20;;;;;;5013065;28;20451;-68
2022/09/24 16:05:49;;;;;;;2.10;2.00;;;21.80;95.10;;;;;;5013431;28;20834;-66
2022/09/24 16:08:16;;;;;;;2.10;2.00;;;21.80;95.40;;;;;;5013142;28;20526;-66
2022/09/24 16:10:44;;;;;;;2.43;2.23;;;21.80;95.00;;;;;;5013215;28;20473;-67
2022/09/24 16:13:11;;;;;;;2.27;2.10;;;21.80;95.00;;;;;;5012944;28;20446;-65
2022/09/24 16:15:38;;;;;;;2.57;2.37;;;21.80;95.30;;;;;;5013146;28;20446;-66
2022/09/24 16:18:06;;;;;;;2.70;2.50;;;21.80;95.20;;;;;;5012997;28;20533;-68
2022/09/24 16:20:38;;;;;;;1.97;1.87;;;21.80;94.90;;;;;;5012528;28;20482;-66
2022/09/24 16:23:05;;;;;;;2.47;2.27;;;21.80;94.90;;;;;;5012632;28;20446;-66
2022/09/24 16:25:32;;;;;;;2.10;2.00;;;21.80;94.80;;;;;;5012930;28;20936;-67
2022/09/24 16:27:59;;;;;;;2.60;2.43;;;21.80;94.80;;;;;;5012911;28;20451;-66
2022/09/24 16:30:26;;;;;;;2.07;1.77;;;21.80;94.70;;;;;;5012704;28;20553;-66
2022/09/24 16:32:52;;;;;;;2.00;1.90;;;21.80;94.70;;;;;;5012459;28;20524;-66
2022/09/24 16:35:19;;;;;;;2.07;1.93;;;21.80;94.60;;;;;;5012277;28;20470;-66
2022/09/24 16:37:47;;;;;;;2.47;2.20;;;21.80;94.60;;;;;;5010760;28;21001;-60
2022/09/24 16:40:14;;;;;;;2.97;2.77;;;21.80;95.00;;;;;;5010915;28;20480;-59
2022/09/24 16:42:42;;;;;;;3.80;3.10;;;21.70;97.20;;;;;;5011914;28;20541;-67
2022/09/24 16:45:11;;;;;;;3.30;2.90;;;21.70;97.80;;;;;;5013107;28;20442;-65
2022/09/24 16:47:38;;;;;;;3.33;2.97;;;21.80;97.90;;;;;;5013335;28;20446;-62
2022/09/24 16:50:06;;;;;;;2.80;2.60;;;21.70;97.90;;;;;;5012720;28;20533;-64
2022/09/24 16:52:33;;;;;;;2.70;2.50;;;21.70;97.60;;;;;;5012740;28;20446;-61
2022/09/24 16:55:01;;;;;;;3.03;2.60;;;21.70;97.70;;;;;;5013308;28;20446;-61
2022/09/24 16:57:28;;;;;;;3.17;2.97;;;21.60;97.60;;;;;;5012748;28;20496;-61
2022/09/24 16:59:55;;;;;;;3.00;2.80;;;21.60;97.60;;;;;;5012794;28;21053;-67
2022/09/24 17:02:22;;;;;;;3.50;3.20;;;21.60;97.70;;;;;;5012774;28;20453;-65
2022/09/24 17:04:48;;;;;;;3.63;3.13;;;21.60;97.80;;;;;;5012364;28;21049;-67
2022/09/24 17:07:15;;;;;;;3.57;3.27;;;21.60;97.80;;;;;;5013191;28;20542;-65
2022/09/24 17:12:28;;;;;;;2.83;2.73;;;21.60;98.00;;;;;;5012496;28;20483;-64
2022/09/24 17:14:56;;;;;;;3.17;2.90;;;21.60;98.40;;;;;;5012747;28;20442;-66
2022/09/24 17:17:23;;;;;;;4.00;2.67;;;21.50;98.00;;;;;;5012363;28;20454;-72
2022/09/24 17:19:50;;;;;;;2.50;2.40;;;21.60;98.20;;;;;;5013205;28;20458;-71
2022/09/24 17:22:17;;;;;;;2.60;2.50;;;21.60;98.10;;;;;;5012708;28;20532;-71
2022/09/24 17:24:44;;;;;;;2.50;2.30;;;21.70;98.30;;;;;;5013409;28;20461;-71
2022/09/24 17:27:11;;;;;;;3.10;2.80;;;21.70;98.10;;;;;;5013375;28;20490;-69
2022/09/24 17:29:39;;;;;;;2.40;2.20;;;21.80;98.10;;;;;;5013271;28;20557;-71
2022/09/24 17:32:06;;;;;;;3.10;2.90;;;21.80;98.00;;;;;;5012412;28;20482;-70
2022/09/24 17:34:34;;;;;;;2.27;2.17;;;21.80;98.00;;;;;;5013269;28;20442;-71
2022/09/24 17:37:01;;;;;;;2.67;2.50;;;21.80;98.00;;;;;;5013246;28;20449;-73
2022/09/24 17:39:29;;;;;;;2.30;2.20;;;21.90;98.00;;;;;;5013060;28;20884;-72
2022/09/24 17:41:56;;;;;;;4.63;2.63;;;21.90;98.00;;;;;;5013864;28;20535;-72
2022/09/24 17:44:23;;;;;;;2.70;2.50;;;21.90;98.00;;;;;;5013017;28;20536;-68
2022/09/24 17:46:51;;;;;;;3.33;2.30;;;21.90;98.10;;;;;;5012801;28;20442;-65
2022/09/24 17:49:18;;;;;;;2.50;2.40;;;21.90;98.00;;;;;;5055322;22;20578;-65
2022/09/24 17:51:46;;;;;;;2.20;2.10;;;21.90;98.00;;;;;;5071134;28;20471;-64
2022/09/24 17:54:16;;;;;;;3.27;2.33;;;22.00;98.00;;;;;;5071465;28;20465;-62
2022/09/24 17:56:43;;;;;;;2.50;2.40;;;22.10;98.10;;;;;;5071461;28;20443;-64
2022/09/24 17:59:11;;;;;;;2.83;2.70;;;22.10;98.10;;;;;;5064855;28;20460;-65
2022/09/24 18:01:40;;;;;;;2.60;2.40;;;22.10;98.10;;;;;;5051097;28;20472;-66
2022/09/24 18:04:12;;;;;;;3.03;2.37;;;22.20;98.20;;;;;;5051328;28;20601;-62
2022/09/24 18:06:41;;;;;;;2.60;2.40;;;22.20;98.10;;;;;;5051448;28;20444;-64
2022/09/24 18:09:09;;;;;;;2.60;2.40;;;22.20;98.10;;;;;;5051054;28;20464;-62
2022/09/24 18:11:40;;;;;;;3.40;1.90;;;22.20;98.40;;;;;;5051025;28;20526;-65
2022/09/24 18:14:07;;;;;;;2.20;2.10;;;22.20;98.00;;;;;;5051276;28;20440;-64
2022/09/24 18:16:34;;;;;;;2.83;2.63;;;22.30;98.00;;;;;;5051116;28;20444;-68
2022/09/24 18:19:03;;;;;;;2.20;2.00;;;22.30;97.90;;;;;;5051173;28;20511;-64
2022/09/24 18:21:32;;;;;;;2.40;2.30;;;22.30;98.40;;;;;;5051182;28;20480;-63
2022/09/24 18:24:00;;;;;;;2.90;2.70;;;22.30;98.20;;;;;;5051093;28;20444;-63
2022/09/24 18:26:31;;;;;;;3.10;2.90;;;22.30;97.90;;;;;;5051265;28;20956;-63
2022/09/24 18:28:59;;;;;;;3.00;2.80;;;22.40;97.90;;;;;;5049636;28;20456;-66
2022/09/24 18:31:28;;;;;;;2.80;2.60;;;22.40;97.90;;;;;;5051105;28;20441;-64
2022/09/24 18:33:59;;;;;;;2.30;2.20;;;22.40;97.80;;;;;;5051504;28;20444;-63
2022/09/24 18:36:26;;;;;;;2.37;2.23;;;22.40;97.70;;;;;;5051199;28;20444;-64
2022/09/24 18:38:54;;;;;;;3.10;3.00;;;22.40;98.00;;;;;;5050686;28;20471;-63
2022/09/24 18:41:23;;;;;;;3.43;3.13;;;22.40;97.60;;;;;;5050984;28;20484;-64
2022/09/24 18:43:51;;;;;;;1.83;1.73;;;22.40;97.60;;;;;;5051036;28;20871;-65
2022/09/24 18:46:20;;;;;;;2.40;2.30;;;22.40;97.60;;;;;;5054517;28;20527;-64
2022/09/24 18:48:49;;;;;;;2.87;2.30;;;22.50;97.50;;;;;;5054646;28;20559;-64
2022/09/24 18:51:17;;;;;;;2.60;2.40;;;22.50;97.50;;;;;;5054725;28;20440;-63
2022/09/24 18:53:45;;;;;;;1.97;1.87;;;22.50;97.40;;;;;;5054159;28;20456;-62